createdAt,value
2018-11-02T00:00:57.277Z,0
2018-11-02T00:02:06.923Z,0
2018-11-02T00:03:17.828Z,0
2018-11-02T00:04:27.687Z,0
2018-11-02T00:05:37.690Z,0
2018-11-02T00:06:47.606Z,0
2018-11-02T00:07:57.523Z,0
2018-11-02T00:09:07.442Z,0
2018-11-02T00:10:17.408Z,0
2018-11-02T00:11:27.388Z,0
2018-11-02T00:12:37.330Z,0
2018-11-02T00:13:47.580Z,0
2018-11-02T00:14:57.234Z,0
2018-11-02T00:16:06.584Z,0
2018-11-02T00:17:16.508Z,0
2018-11-02T00:18:26.144Z,0
2018-11-02T00:19:36.074Z,0
2018-11-02T00:20:46.259Z,0
2018-11-02T00:21:56.446Z,0
2018-11-02T00:23:06.701Z,0
2018-11-02T00:24:16.048Z,0
2018-11-02T00:25:26.534Z,0
2018-11-02T00:26:36.962Z,0
2018-11-02T00:27:47.061Z,0
2018-11-02T00:28:56.709Z,0
2018-11-02T00:30:06.631Z,0
2018-11-02T00:31:16.832Z,0
2018-11-02T00:32:27.050Z,0
2018-11-02T00:33:36.968Z,0
2018-11-02T00:34:46.880Z,0
2018-11-02T00:35:56.515Z,0
2018-11-02T00:37:06.724Z,0
2018-11-02T00:38:15.827Z,0
2018-11-02T00:39:25.222Z,0
2018-11-02T00:40:35.154Z,0
2018-11-02T00:41:44.813Z,0
2018-11-02T00:42:55.044Z,0
2018-11-02T00:44:05.476Z,0
2018-11-02T00:45:15.801Z,0
2018-11-02T00:46:25.433Z,0
2018-11-02T00:47:35.980Z,0
2018-11-02T00:48:46.515Z,0
2018-11-02T00:49:56.109Z,0
2018-11-02T00:51:06.068Z,0
2018-11-02T00:52:15.693Z,0
2018-11-02T00:53:26.101Z,0
2018-11-02T00:54:36.027Z,0
2018-11-02T00:55:46.223Z,0
2018-11-02T00:56:55.066Z,0
2018-11-02T00:58:04.686Z,0
2018-11-02T00:59:14.316Z,0
2018-11-02T01:00:23.952Z,0
2018-11-02T01:01:33.032Z,0
2018-11-02T01:02:42.945Z,0
2018-11-02T01:03:52.582Z,0
2018-11-02T01:05:01.369Z,0
2018-11-02T01:06:10.713Z,0
2018-11-02T01:07:20.628Z,0
2018-11-02T01:08:30.547Z,0
2018-11-02T01:09:40.744Z,0
2018-11-02T01:10:50.387Z,0
2018-11-02T01:12:00.231Z,0
2018-11-02T01:13:09.681Z,0
2018-11-02T01:14:20.440Z,0
2018-11-02T01:15:30.123Z,0
2018-11-02T01:16:40.446Z,0
2018-11-02T01:17:50.524Z,0
2018-11-02T01:19:00.313Z,0
2018-11-02T01:20:09.948Z,0
2018-11-02T01:21:19.579Z,0
2018-11-02T01:22:29.778Z,0
2018-11-02T01:23:38.855Z,0
2018-11-02T01:24:49.081Z,0
2018-11-02T01:25:58.152Z,0
2018-11-02T01:27:07.785Z,0
2018-11-02T01:28:16.863Z,0
2018-11-02T01:29:26.797Z,0
2018-11-02T01:30:36.729Z,0
2018-11-02T01:31:46.654Z,0
2018-11-02T01:32:56.287Z,0
2018-11-02T01:34:06.206Z,0
2018-11-02T01:35:16.694Z,0
2018-11-02T01:36:27.726Z,0
2018-11-02T01:37:37.908Z,0
2018-11-02T01:38:47.824Z,0
2018-11-02T01:39:57.739Z,0
2018-11-02T01:41:07.633Z,0
2018-11-02T01:42:17.547Z,0
2018-11-02T01:43:27.180Z,0
2018-11-02T01:44:36.809Z,0
2018-11-02T01:45:46.994Z,0
2018-11-02T01:46:56.356Z,0
2018-11-02T01:48:06.549Z,0
2018-11-02T01:49:16.234Z,0
2018-11-02T01:50:26.147Z,0
2018-11-02T01:51:35.777Z,0
2018-11-02T01:52:45.983Z,0
2018-11-02T01:53:56.220Z,0
2018-11-02T01:55:06.427Z,0
2018-11-02T01:56:16.345Z,0
2018-11-02T01:57:26.607Z,0
2018-11-02T01:58:36.927Z,0
2018-11-02T01:59:47.444Z,0
2018-11-02T02:00:57.359Z,0
2018-11-02T02:02:07.555Z,0
2018-11-02T02:03:17.464Z,0
2018-11-02T02:04:26.818Z,0
2018-11-02T02:05:36.444Z,0
2018-11-02T02:06:46.349Z,0
2018-11-02T02:07:55.711Z,0
2018-11-02T02:09:05.621Z,0
2018-11-02T02:10:15.258Z,0
2018-11-02T02:11:25.186Z,0
2018-11-02T02:12:33.980Z,0
2018-11-02T02:13:43.336Z,0
2018-11-02T02:14:52.992Z,0
2018-11-02T02:16:03.194Z,0
2018-11-02T02:17:13.128Z,0
2018-11-02T02:18:23.062Z,0
2018-11-02T02:19:33.249Z,0
2018-11-02T02:20:43.262Z,0
2018-11-02T02:21:53.395Z,0
2018-11-02T02:23:03.835Z,0
2018-11-02T02:24:13.493Z,0
2018-11-02T02:25:22.574Z,0
2018-11-02T02:26:32.227Z,0
2018-11-02T02:27:42.137Z,0
2018-11-02T02:28:51.770Z,0
2018-11-02T02:30:01.688Z,0
2018-11-02T02:31:11.895Z,0
2018-11-02T02:32:22.101Z,0
2018-11-02T02:33:32.028Z,0
2018-11-02T02:34:41.961Z,0
2018-11-02T02:35:51.324Z,0
2018-11-02T02:37:00.981Z,0
2018-11-02T02:38:10.335Z,0
2018-11-02T02:39:20.245Z,0
2018-11-02T02:40:30.436Z,0
2018-11-02T02:41:40.372Z,0
2018-11-02T02:42:50.582Z,0
2018-11-02T02:44:01.401Z,0
2018-11-02T02:45:10.990Z,0
2018-11-02T02:46:21.219Z,0
2018-11-02T02:47:31.218Z,0
2018-11-02T02:48:41.092Z,0
2018-11-02T02:49:50.444Z,0
2018-11-02T02:51:00.079Z,0
2018-11-02T02:52:10.040Z,0
2018-11-02T02:53:20.269Z,0
2018-11-02T02:54:30.450Z,0
2018-11-02T02:55:40.080Z,0
2018-11-02T02:56:49.722Z,0
2018-11-02T02:57:59.688Z,0
2018-11-02T02:59:09.312Z,0
2018-11-02T03:00:19.520Z,0
2018-11-02T03:01:29.154Z,0
2018-11-02T03:02:39.073Z,0
2018-11-02T03:03:48.990Z,0
2018-11-02T03:04:59.200Z,0
2018-11-02T03:06:09.402Z,0
2018-11-02T03:07:19.355Z,0
2018-11-02T03:08:29.848Z,0
2018-11-02T03:09:39.787Z,0
2018-11-02T03:10:50.287Z,0
2018-11-02T03:12:00.399Z,0
2018-11-02T03:13:10.338Z,0
2018-11-02T03:14:19.691Z,0
2018-11-02T03:15:29.047Z,0
2018-11-02T03:16:38.452Z,0
2018-11-02T03:17:48.360Z,0
2018-11-02T03:18:58.842Z,0
2018-11-02T03:20:08.516Z,0
2018-11-02T03:21:18.484Z,0
2018-11-02T03:22:29.070Z,0
2018-11-02T03:23:39.398Z,0
2018-11-02T03:24:49.628Z,0
2018-11-02T03:25:59.543Z,0
2018-11-02T03:27:09.453Z,0
2018-11-02T03:28:19.189Z,0
2018-11-02T03:29:29.358Z,0
2018-11-02T03:30:40.093Z,0
2018-11-02T03:31:49.443Z,0
2018-11-02T03:32:59.673Z,0
2018-11-02T03:34:09.316Z,0
2018-11-02T03:35:19.518Z,0
2018-11-02T03:36:29.452Z,0
2018-11-02T03:37:39.095Z,0
2018-11-02T03:38:48.762Z,0
2018-11-02T03:39:58.666Z,0
2018-11-02T03:41:08.890Z,0
2018-11-02T03:42:18.522Z,0
2018-11-02T03:43:28.434Z,0
2018-11-02T03:44:38.628Z,0
2018-11-02T03:45:48.264Z,0
2018-11-02T03:46:58.179Z,0
2018-11-02T03:48:07.526Z,0
2018-11-02T03:49:17.432Z,0
2018-11-02T03:50:27.662Z,0
2018-11-02T03:51:37.299Z,0
2018-11-02T03:52:47.477Z,0
2018-11-02T03:53:58.208Z,0
2018-11-02T03:55:08.682Z,0
2018-11-02T03:56:19.269Z,0
2018-11-02T03:57:29.574Z,0
2018-11-02T03:58:39.218Z,0
2018-11-02T03:59:49.496Z,0
2018-11-02T04:01:00.148Z,0
2018-11-02T04:02:10.070Z,0
2018-11-02T04:03:20.032Z,0
2018-11-02T04:04:29.958Z,0
2018-11-02T04:05:39.864Z,0
2018-11-02T04:06:49.498Z,0
2018-11-02T04:07:59.432Z,0
2018-11-02T04:09:09.409Z,0
2018-11-02T04:10:19.331Z,0
2018-11-02T04:11:29.247Z,0
2018-11-02T04:12:39.191Z,0
2018-11-02T04:13:49.123Z,0
2018-11-02T04:14:59.691Z,0
2018-11-02T04:16:10.111Z,0
2018-11-02T04:17:19.934Z,0
2018-11-02T04:18:29.869Z,0
2018-11-02T04:19:40.116Z,0
2018-11-02T04:20:49.797Z,0
2018-11-02T04:22:00.008Z,0
2018-11-02T04:23:10.214Z,0
2018-11-02T04:24:20.203Z,0
2018-11-02T04:25:29.596Z,0
2018-11-02T04:26:39.551Z,0
2018-11-02T04:27:49.184Z,0
2018-11-02T04:28:59.428Z,0
2018-11-02T04:30:09.107Z,0
2018-11-02T04:31:19.180Z,0
2018-11-02T04:32:29.411Z,0
2018-11-02T04:33:39.314Z,0
2018-11-02T04:34:49.518Z,0
2018-11-02T04:35:59.142Z,0
2018-11-02T04:37:09.454Z,0
2018-11-02T04:38:19.421Z,0
2018-11-02T04:39:29.514Z,0
2018-11-02T04:40:39.767Z,0
2018-11-02T04:41:49.675Z,0
2018-11-02T04:42:59.313Z,0
2018-11-02T04:44:08.657Z,0
2018-11-02T04:45:18.842Z,0
2018-11-02T04:46:28.488Z,0
2018-11-02T04:47:38.400Z,0
2018-11-02T04:48:47.752Z,0
2018-11-02T04:49:57.666Z,0
2018-11-02T04:51:07.807Z,0
2018-11-02T04:52:17.828Z,0
2018-11-02T04:53:27.745Z,0
2018-11-02T04:54:37.655Z,0
2018-11-02T04:55:47.559Z,0
2018-11-02T04:56:57.251Z,0
2018-11-02T04:58:06.917Z,0
2018-11-02T04:59:16.272Z,0
2018-11-02T05:00:26.104Z,0
2018-11-02T05:01:36.226Z,0
2018-11-02T05:02:45.957Z,0
2018-11-02T05:03:55.584Z,0
2018-11-02T05:05:04.954Z,0
2018-11-02T05:06:15.244Z,0
2018-11-02T05:07:25.156Z,0
2018-11-02T05:08:35.350Z,0
2018-11-02T05:09:46.095Z,0
2018-11-02T05:10:55.788Z,0
2018-11-02T05:12:05.743Z,0
2018-11-02T05:13:15.952Z,0
2018-11-02T05:14:25.863Z,0
2018-11-02T05:15:35.792Z,0
2018-11-02T05:16:45.428Z,0
2018-11-02T05:17:55.101Z,0
2018-11-02T05:19:04.448Z,0
2018-11-02T05:20:14.368Z,0
2018-11-02T05:21:25.447Z,0
2018-11-02T05:22:35.611Z,0
2018-11-02T05:23:46.086Z,0
2018-11-02T05:24:56.481Z,0
2018-11-02T05:26:06.685Z,0
2018-11-02T05:27:16.325Z,0
2018-11-02T05:28:25.956Z,0
2018-11-02T05:29:35.861Z,0
2018-11-02T05:30:45.778Z,0
2018-11-02T05:31:55.692Z,0
2018-11-02T05:33:05.609Z,0
2018-11-02T05:34:14.962Z,0
2018-11-02T05:35:24.883Z,0
2018-11-02T05:36:34.234Z,0
2018-11-02T05:37:43.861Z,0
2018-11-02T05:38:53.779Z,0
2018-11-02T05:40:03.689Z,0
2018-11-02T05:41:13.324Z,0
2018-11-02T05:42:23.247Z,0
2018-11-02T05:43:33.433Z,0
2018-11-02T05:44:43.934Z,0
2018-11-02T05:45:54.525Z,0
2018-11-02T05:47:04.967Z,0
2018-11-02T05:48:15.205Z,0
2018-11-02T05:49:25.123Z,0
2018-11-02T05:50:34.815Z,0
2018-11-02T05:51:44.160Z,0
2018-11-02T05:52:53.506Z,0
2018-11-02T05:54:04.026Z,0
2018-11-02T05:55:13.714Z,0
2018-11-02T05:56:23.655Z,0
2018-11-02T05:57:33.875Z,0
2018-11-02T05:58:43.785Z,0
2018-11-02T05:59:53.462Z,0
2018-11-02T06:01:03.652Z,0
2018-11-02T06:02:13.843Z,0
2018-11-02T06:03:23.834Z,0
2018-11-02T06:04:33.522Z,0
2018-11-02T06:05:43.514Z,0
2018-11-02T06:06:53.450Z,0
2018-11-02T06:08:04.886Z,0
2018-11-02T06:09:15.351Z,0
2018-11-02T06:10:24.701Z,0
2018-11-02T06:11:34.069Z,0
2018-11-02T06:12:44.260Z,0
2018-11-02T06:13:53.977Z,0
2018-11-02T06:15:03.326Z,0
2018-11-02T06:16:12.955Z,0
2018-11-02T06:17:22.941Z,0
2018-11-02T06:18:32.900Z,0
2018-11-02T06:19:43.084Z,0
2018-11-02T06:20:52.995Z,0
2018-11-02T06:22:02.618Z,0
2018-11-02T06:23:12.822Z,0
2018-11-02T06:24:23.904Z,0
2018-11-02T06:25:33.606Z,0
2018-11-02T06:26:43.535Z,0
2018-11-02T06:27:53.448Z,0
2018-11-02T06:29:02.804Z,0
2018-11-02T06:30:12.205Z,0
2018-11-02T06:31:22.181Z,0
2018-11-02T06:32:31.983Z,0
2018-11-02T06:33:41.574Z,0
2018-11-02T06:34:51.521Z,0
2018-11-02T06:36:01.710Z,0
2018-11-02T06:37:11.056Z,0
2018-11-02T06:38:20.984Z,0
2018-11-02T06:39:30.063Z,0
2018-11-02T06:40:39.974Z,0
2018-11-02T06:41:49.893Z,0
2018-11-02T06:43:00.102Z,0
2018-11-02T06:44:09.740Z,0
2018-11-02T06:45:19.821Z,0
2018-11-02T06:46:30.093Z,0
2018-11-02T06:47:39.727Z,0
2018-11-02T06:48:49.643Z,0
2018-11-02T06:49:59.604Z,0
2018-11-02T06:51:10.500Z,0
2018-11-02T06:52:21.420Z,0
2018-11-02T06:53:31.569Z,0
2018-11-02T06:54:41.646Z,0
2018-11-02T06:55:51.874Z,0
2018-11-02T06:57:01.508Z,0
2018-11-02T06:58:11.705Z,5
2018-11-02T06:59:21.958Z,5
2018-11-02T07:00:33.170Z,5
2018-11-02T07:01:42.168Z,5
2018-11-02T07:02:52.094Z,10
2018-11-02T07:04:02.324Z,15
2018-11-02T07:05:12.247Z,10
2018-11-02T07:06:22.462Z,15
2018-11-02T07:07:34.098Z,25
2018-11-02T07:08:44.682Z,25
2018-11-02T07:09:54.633Z,25
2018-11-02T07:11:04.496Z,25
2018-11-02T07:12:14.510Z,25
2018-11-02T07:13:24.739Z,25
2018-11-02T07:14:35.471Z,25
2018-11-02T07:15:45.380Z,25
2018-11-02T07:16:55.308Z,25
2018-11-02T07:18:04.661Z,20
2018-11-02T07:19:14.570Z,30
2018-11-02T07:20:24.197Z,45
2018-11-02T07:21:33.820Z,50
2018-11-02T07:22:43.744Z,60
2018-11-02T07:23:53.847Z,75
2018-11-02T07:25:04.064Z,75
2018-11-02T07:26:13.990Z,65
2018-11-02T07:27:23.343Z,50
2018-11-02T07:28:32.980Z,35
2018-11-02T07:29:42.919Z,35
2018-11-02T07:30:51.999Z,40
2018-11-02T07:32:02.209Z,40
2018-11-02T07:33:12.006Z,40
2018-11-02T07:34:22.034Z,40
2018-11-02T07:35:31.916Z,80
2018-11-02T07:36:42.676Z,80
2018-11-02T07:37:52.655Z,85
2018-11-02T07:39:02.040Z,80
2018-11-02T07:40:12.020Z,90
2018-11-02T07:41:21.952Z,95
2018-11-02T07:42:32.136Z,125
2018-11-02T07:43:41.488Z,120
2018-11-02T07:44:51.167Z,110
2018-11-02T07:46:01.081Z,115
2018-11-02T07:47:10.752Z,115
2018-11-02T07:48:20.399Z,105
2018-11-02T07:49:30.751Z,110
2018-11-02T07:50:40.454Z,115
2018-11-02T07:51:49.814Z,110
2018-11-02T07:53:00.163Z,115
2018-11-02T07:54:10.387Z,135
2018-11-02T07:55:20.334Z,150
2018-11-02T07:56:30.666Z,145
2018-11-02T07:57:41.534Z,135
2018-11-02T07:58:51.945Z,130
2018-11-02T08:00:01.297Z,125
2018-11-02T08:01:11.499Z,120
2018-11-02T08:02:21.755Z,120
2018-11-02T08:03:31.704Z,130
2018-11-02T08:04:41.641Z,130
2018-11-02T08:05:51.319Z,125
2018-11-02T08:07:00.972Z,130
2018-11-02T08:08:10.925Z,150
2018-11-02T08:09:20.831Z,160
2018-11-02T08:10:30.739Z,145
2018-11-02T08:11:41.673Z,125
2018-11-02T08:12:51.871Z,110
2018-11-02T08:14:01.490Z,115
2018-11-02T08:15:11.719Z,105
2018-11-02T08:16:21.617Z,130
2018-11-02T08:17:32.109Z,130
2018-11-02T08:18:42.451Z,155
2018-11-02T08:19:52.042Z,165
2018-11-02T08:21:01.928Z,170
2018-11-02T08:22:11.545Z,200
2018-11-02T08:23:20.895Z,165
2018-11-02T08:24:30.666Z,160
2018-11-02T08:25:40.345Z,155
2018-11-02T08:26:50.017Z,175
2018-11-02T08:27:59.643Z,155
2018-11-02T08:29:09.008Z,170
2018-11-02T08:30:18.900Z,180
2018-11-02T08:31:28.521Z,170
2018-11-02T08:32:38.699Z,200
2018-11-02T08:33:48.579Z,170
2018-11-02T08:34:58.484Z,185
2018-11-02T08:36:08.375Z,170
2018-11-02T08:37:18.547Z,170
2018-11-02T08:38:28.714Z,140
2018-11-02T08:39:38.054Z,130
2018-11-02T08:40:47.941Z,130
2018-11-02T08:41:57.826Z,130
2018-11-02T08:43:07.713Z,150
2018-11-02T08:44:17.114Z,165
2018-11-02T08:45:26.449Z,155
2018-11-02T08:46:36.812Z,175
2018-11-02T08:47:46.646Z,175
2018-11-02T08:48:56.530Z,195
2018-11-02T08:50:06.474Z,195
2018-11-02T08:51:16.096Z,180
2018-11-02T08:52:26.958Z,175
2018-11-02T08:53:36.412Z,180
2018-11-02T08:54:46.297Z,175
2018-11-02T08:55:56.460Z,185
2018-11-02T08:57:06.355Z,190
2018-11-02T08:58:17.646Z,200
2018-11-02T08:59:28.568Z,205
2018-11-02T09:00:38.634Z,205
2018-11-02T09:01:48.796Z,195
2018-11-02T09:02:58.681Z,215
2018-11-02T09:04:08.021Z,205
2018-11-02T09:05:17.862Z,190
2018-11-02T09:06:27.744Z,175
2018-11-02T09:07:37.947Z,190
2018-11-02T09:08:47.845Z,180
2018-11-02T09:09:57.453Z,185
2018-11-02T09:11:07.340Z,170
2018-11-02T09:12:18.122Z,175
2018-11-02T09:13:28.041Z,195
2018-11-02T09:14:37.655Z,205
2018-11-02T09:15:47.543Z,200
2018-11-02T09:16:56.884Z,230
2018-11-02T09:18:06.772Z,225
2018-11-02T09:19:17.190Z,200
2018-11-02T09:20:27.109Z,195
2018-11-02T09:21:38.213Z,200
2018-11-02T09:22:47.833Z,210
2018-11-02T09:23:58.024Z,195
2018-11-02T09:25:07.643Z,205
2018-11-02T09:26:17.531Z,215
2018-11-02T09:27:27.638Z,210
2018-11-02T09:28:36.955Z,210
2018-11-02T09:29:46.573Z,190
2018-11-02T09:30:56.736Z,195
2018-11-02T09:32:06.359Z,215
2018-11-02T09:33:15.696Z,240
2018-11-02T09:34:26.112Z,255
2018-11-02T09:35:35.840Z,250
2018-11-02T09:36:45.769Z,245
2018-11-02T09:37:55.127Z,250
2018-11-02T09:39:04.778Z,255
2018-11-02T09:40:15.183Z,260
2018-11-02T09:41:25.191Z,270
2018-11-02T09:42:35.119Z,275
2018-11-02T09:43:45.060Z,265
2018-11-02T09:44:55.009Z,245
2018-11-02T09:46:04.935Z,245
2018-11-02T09:47:14.906Z,255
2018-11-02T09:48:24.284Z,260
2018-11-02T09:49:33.982Z,260
2018-11-02T09:50:43.914Z,250
2018-11-02T09:51:54.966Z,260
2018-11-02T09:53:04.676Z,275
2018-11-02T09:54:14.618Z,275
2018-11-02T09:55:24.546Z,280
2018-11-02T09:56:37.324Z,280
2018-11-02T09:57:48.556Z,290
2018-11-02T09:58:58.359Z,280
2018-11-02T10:00:08.008Z,285
2018-11-02T10:01:17.658Z,275
2018-11-02T10:02:27.590Z,270
2018-11-02T10:03:37.860Z,270
2018-11-02T10:04:47.810Z,260
2018-11-02T10:05:58.026Z,250
2018-11-02T10:07:07.678Z,255
2018-11-02T10:08:18.055Z,260
2018-11-02T10:09:28.800Z,270
2018-11-02T10:10:38.158Z,275
2018-11-02T10:11:47.531Z,275
2018-11-02T10:12:57.469Z,275
2018-11-02T10:14:07.135Z,285
2018-11-02T10:15:17.066Z,295
2018-11-02T10:16:27.013Z,295
2018-11-02T10:17:36.656Z,295
2018-11-02T10:18:46.854Z,300
2018-11-02T10:19:56.807Z,300
2018-11-02T10:21:06.449Z,305
2018-11-02T10:22:16.380Z,300
2018-11-02T10:23:26.022Z,300
2018-11-02T10:24:35.954Z,315
2018-11-02T10:25:46.169Z,315
2018-11-02T10:26:55.546Z,315
2018-11-02T10:28:05.465Z,325
2018-11-02T10:29:15.487Z,315
2018-11-02T10:30:25.168Z,320
2018-11-02T10:31:35.387Z,315
2018-11-02T10:32:45.648Z,315
2018-11-02T10:33:55.596Z,315
2018-11-02T10:35:05.582Z,315
2018-11-02T10:36:16.609Z,315
2018-11-02T10:37:26.533Z,315
2018-11-02T10:38:36.818Z,320
2018-11-02T10:39:46.587Z,335
2018-11-02T10:40:56.346Z,335
2018-11-02T10:42:05.998Z,335
2018-11-02T10:43:16.352Z,340
2018-11-02T10:44:26.816Z,340
2018-11-02T10:45:37.386Z,350
2018-11-02T10:46:47.595Z,350
2018-11-02T10:47:57.808Z,345
2018-11-02T10:49:07.814Z,350
2018-11-02T10:50:17.756Z,345
2018-11-02T10:51:27.995Z,340
2018-11-02T10:52:38.275Z,345
2018-11-02T10:53:48.490Z,350
2018-11-02T10:54:58.200Z,350
2018-11-02T10:56:07.885Z,350
2018-11-02T10:57:16.992Z,350
2018-11-02T10:58:26.905Z,345
2018-11-02T10:59:36.566Z,340
2018-11-02T11:00:47.209Z,340
2018-11-02T11:01:57.155Z,345
2018-11-02T11:03:06.799Z,345
2018-11-02T11:04:16.760Z,345
2018-11-02T11:05:26.807Z,340
2018-11-02T11:06:37.489Z,340
2018-11-02T11:07:46.845Z,335
2018-11-02T11:08:56.490Z,320
2018-11-02T11:10:06.175Z,300
2018-11-02T11:11:16.107Z,300
2018-11-02T11:12:26.330Z,300
2018-11-02T11:13:40.118Z,300
2018-11-02T11:14:50.120Z,295
2018-11-02T11:16:00.060Z,290
2018-11-02T11:17:09.716Z,285
2018-11-02T11:18:19.667Z,300
2018-11-02T11:19:29.892Z,330
2018-11-02T11:20:39.549Z,355
2018-11-02T11:21:49.263Z,375
2018-11-02T11:22:59.497Z,365
2018-11-02T11:24:09.133Z,365
2018-11-02T11:25:18.774Z,370
2018-11-02T11:26:28.752Z,370
2018-11-02T11:27:39.096Z,335
2018-11-02T11:28:49.958Z,340
2018-11-02T11:30:00.064Z,355
2018-11-02T11:31:10.418Z,385
2018-11-02T11:32:20.756Z,415
2018-11-02T11:33:30.747Z,430
2018-11-02T11:34:40.409Z,415
2018-11-02T11:35:50.180Z,395
2018-11-02T11:36:59.877Z,375
2018-11-02T11:38:09.550Z,305
2018-11-02T11:39:19.274Z,310
2018-11-02T11:40:28.649Z,300
2018-11-02T11:41:38.285Z,260
2018-11-02T11:42:47.652Z,230
2018-11-02T11:43:57.296Z,205
2018-11-02T11:45:06.974Z,190
2018-11-02T11:46:16.648Z,170
2018-11-02T11:47:26.882Z,170
2018-11-02T11:48:36.775Z,170
2018-11-02T11:49:47.187Z,175
2018-11-02T11:50:56.853Z,190
2018-11-02T11:52:06.491Z,205
2018-11-02T11:53:17.046Z,215
2018-11-02T11:54:27.268Z,225
2018-11-02T11:55:37.200Z,220
2018-11-02T11:56:47.454Z,225
2018-11-02T11:57:56.832Z,225
2018-11-02T11:59:06.767Z,230
2018-11-02T12:00:16.993Z,235
2018-11-02T12:01:26.936Z,245
2018-11-02T12:02:37.429Z,255
2018-11-02T12:03:46.789Z,265
2018-11-02T12:04:56.303Z,245
2018-11-02T12:06:05.593Z,250
2018-11-02T12:07:14.966Z,295
2018-11-02T12:08:24.916Z,350
2018-11-02T12:09:35.160Z,365
2018-11-02T12:10:45.542Z,385
2018-11-02T12:11:55.205Z,380
2018-11-02T12:13:05.138Z,365
2018-11-02T12:14:15.086Z,350
2018-11-02T12:15:25.026Z,320
2018-11-02T12:16:34.690Z,315
2018-11-02T12:17:44.663Z,315
2018-11-02T12:18:54.888Z,325
2018-11-02T12:20:04.853Z,350
2018-11-02T12:21:14.505Z,350
2018-11-02T12:22:24.759Z,350
2018-11-02T12:23:35.716Z,345
2018-11-02T12:24:45.395Z,345
2018-11-02T12:25:55.635Z,350
2018-11-02T12:27:05.273Z,350
2018-11-02T12:28:15.414Z,340
2018-11-02T12:29:25.411Z,330
2018-11-02T12:30:34.858Z,340
2018-11-02T12:31:44.489Z,335
2018-11-02T12:32:54.421Z,325
2018-11-02T12:34:04.365Z,340
2018-11-02T12:35:14.598Z,355
2018-11-02T12:36:24.250Z,405
2018-11-02T12:37:34.173Z,430
2018-11-02T12:38:44.413Z,415
2018-11-02T12:39:54.395Z,405
2018-11-02T12:41:04.903Z,415
2018-11-02T12:42:15.442Z,415
2018-11-02T12:43:26.076Z,410
2018-11-02T12:44:36.120Z,395
2018-11-02T12:45:46.078Z,365
2018-11-02T12:46:56.016Z,345
2018-11-02T12:48:06.965Z,335
2018-11-02T12:49:18.558Z,355
2018-11-02T12:50:29.745Z,425
2018-11-02T12:51:40.083Z,390
2018-11-02T12:52:50.036Z,390
2018-11-02T12:53:59.658Z,390
2018-11-02T12:55:09.609Z,375
2018-11-02T12:56:19.252Z,365
2018-11-02T12:57:29.606Z,365
2018-11-02T12:58:38.694Z,370
2018-11-02T12:59:48.339Z,490
2018-11-02T13:00:58.400Z,580
2018-11-02T13:02:08.163Z,405
2018-11-02T13:03:18.294Z,430
2018-11-02T13:04:28.529Z,425
2018-11-02T13:05:38.179Z,425
2018-11-02T13:06:47.845Z,415
2018-11-02T13:07:57.852Z,420
2018-11-02T13:09:07.485Z,435
2018-11-02T13:10:17.706Z,410
2018-11-02T13:11:27.384Z,405
2018-11-02T13:12:36.767Z,415
2018-11-02T13:13:46.131Z,405
2018-11-02T13:14:55.800Z,390
2018-11-02T13:16:06.342Z,370
2018-11-02T13:17:16.207Z,345
2018-11-02T13:18:26.309Z,325
2018-11-02T13:19:36.300Z,315
2018-11-02T13:20:45.958Z,320
2018-11-02T13:21:56.221Z,335
2018-11-02T13:23:06.036Z,330
2018-11-02T13:24:16.761Z,315
2018-11-02T13:25:27.597Z,300
2018-11-02T13:26:37.834Z,305
2018-11-02T13:27:47.694Z,310
2018-11-02T13:28:57.619Z,310
2018-11-02T13:30:07.738Z,310
2018-11-02T13:31:18.132Z,300
2018-11-02T13:32:28.436Z,285
2018-11-02T13:33:38.383Z,275
2018-11-02T13:34:48.033Z,280
2018-11-02T13:35:57.970Z,295
2018-11-02T13:37:07.611Z,305
2018-11-02T13:38:17.682Z,290
2018-11-02T13:39:27.343Z,280
2018-11-02T13:40:37.001Z,265
2018-11-02T13:41:47.255Z,260
2018-11-02T13:42:57.692Z,260
2018-11-02T13:44:07.726Z,275
2018-11-02T13:45:18.019Z,285
2018-11-02T13:46:27.930Z,385
2018-11-02T13:47:38.284Z,285
2018-11-02T13:48:48.215Z,285
2018-11-02T13:49:58.151Z,300
2018-11-02T13:51:07.852Z,310
2018-11-02T13:52:17.228Z,240
2018-11-02T13:53:26.888Z,245
2018-11-02T13:54:37.184Z,580
2018-11-02T13:55:47.496Z,285
2018-11-02T13:56:57.705Z,345
2018-11-02T13:58:07.362Z,880
2018-11-02T13:59:17.883Z,455
2018-11-02T14:00:27.882Z,805
2018-11-02T14:01:37.783Z,880
2018-11-02T14:02:47.718Z,1020
2018-11-02T14:03:57.371Z,1195
2018-11-02T14:05:07.057Z,1245
2018-11-02T14:06:16.794Z,1165
2018-11-02T14:07:26.161Z,795
2018-11-02T14:08:37.485Z,650
2018-11-02T14:09:48.197Z,455
2018-11-02T14:10:58.364Z,260
2018-11-02T14:12:07.793Z,335
2018-11-02T14:13:17.437Z,220
2018-11-02T14:14:27.099Z,390
2018-11-02T14:15:36.749Z,475
2018-11-02T14:16:46.422Z,225
2018-11-02T14:17:56.408Z,215
2018-11-02T14:19:06.625Z,215
2018-11-02T14:20:16.567Z,220
2018-11-02T14:21:26.521Z,225
2018-11-02T14:22:36.442Z,235
2018-11-02T14:23:45.813Z,230
2018-11-02T14:24:56.030Z,255
2018-11-02T14:26:05.989Z,230
2018-11-02T14:27:15.691Z,225
2018-11-02T14:28:25.356Z,215
2018-11-02T14:29:36.018Z,205
2018-11-02T14:30:46.265Z,190
2018-11-02T14:31:56.865Z,180
2018-11-02T14:33:07.263Z,175
2018-11-02T14:34:17.758Z,175
2018-11-02T14:35:27.704Z,180
2018-11-02T14:36:37.352Z,190
2018-11-02T14:37:46.999Z,200
2018-11-02T14:38:57.241Z,190
2018-11-02T14:40:07.177Z,190
2018-11-02T14:41:18.081Z,185
2018-11-02T14:42:28.071Z,175
2018-11-02T14:43:38.011Z,165
2018-11-02T14:44:47.389Z,150
2018-11-02T14:45:57.047Z,140
2018-11-02T14:47:06.970Z,130
2018-11-02T14:48:16.930Z,120
2018-11-02T14:49:26.884Z,115
2018-11-02T14:50:36.550Z,110
2018-11-02T14:51:46.528Z,100
2018-11-02T14:52:56.767Z,95
2018-11-02T14:54:06.144Z,85
2018-11-02T14:55:15.802Z,80
2018-11-02T14:56:24.889Z,75
2018-11-02T14:57:34.494Z,65
2018-11-02T14:58:44.388Z,60
2018-11-02T14:59:54.525Z,55
2018-11-02T15:01:03.212Z,55
2018-11-02T15:02:13.438Z,50
2018-11-02T15:03:23.404Z,45
2018-11-02T15:04:33.072Z,45
2018-11-02T15:05:42.728Z,45
2018-11-02T15:06:52.416Z,40
2018-11-02T15:08:02.114Z,40
2018-11-02T15:09:11.766Z,35
2018-11-02T15:10:21.709Z,35
2018-11-02T15:11:32.772Z,30
2018-11-02T15:12:42.799Z,30
2018-11-02T15:13:52.182Z,30
2018-11-02T15:15:02.138Z,30
2018-11-02T15:16:11.501Z,25
2018-11-02T15:17:21.449Z,25
2018-11-02T15:18:31.107Z,20
2018-11-02T15:19:41.061Z,20
2018-11-02T15:20:51.698Z,20
2018-11-02T15:22:01.436Z,20
2018-11-02T15:23:12.058Z,20
2018-11-02T15:24:22.019Z,20
2018-11-02T15:25:31.388Z,15
2018-11-02T15:26:41.071Z,15
2018-11-02T15:27:50.378Z,15
2018-11-02T15:28:59.746Z,15
2018-11-02T15:30:09.388Z,15
2018-11-02T15:31:18.749Z,15
2018-11-02T15:32:28.671Z,15
2018-11-02T15:33:38.326Z,15
2018-11-02T15:34:48.826Z,10
2018-11-02T15:35:59.040Z,10
2018-11-02T15:37:08.751Z,10
2018-11-02T15:38:17.835Z,10
2018-11-02T15:39:27.486Z,10
2018-11-02T15:40:37.433Z,5
2018-11-02T15:41:47.640Z,5
2018-11-02T15:42:57.870Z,5
2018-11-02T15:44:07.965Z,5
2018-11-02T15:45:18.595Z,5
2018-11-02T15:46:28.947Z,5
2018-11-02T15:47:38.495Z,5
2018-11-02T15:48:48.714Z,5
2018-11-02T15:49:58.665Z,5
2018-11-02T15:51:08.677Z,0
2018-11-02T15:52:18.623Z,0
2018-11-02T15:53:29.700Z,0
2018-11-02T15:54:39.944Z,0
2018-11-02T15:55:49.591Z,0
2018-11-02T15:56:59.530Z,0
2018-11-02T15:58:09.158Z,0
2018-11-02T15:59:18.816Z,0
2018-11-02T16:00:29.175Z,0
2018-11-02T16:01:38.899Z,0
2018-11-02T16:02:48.558Z,0
2018-11-02T16:03:57.975Z,0
2018-11-02T16:05:07.055Z,0
2018-11-02T16:06:16.732Z,0
2018-11-02T16:07:27.013Z,0
2018-11-02T16:08:36.666Z,0
2018-11-02T16:09:46.889Z,0
2018-11-02T16:10:57.120Z,0
2018-11-02T16:12:06.760Z,0
2018-11-02T16:13:17.151Z,0
2018-11-02T16:14:27.679Z,0
2018-11-02T16:15:37.246Z,0
2018-11-02T16:16:47.176Z,0
2018-11-02T16:17:56.827Z,0
2018-11-02T16:19:06.758Z,0
2018-11-02T16:20:17.213Z,0
2018-11-02T16:21:26.583Z,0
2018-11-02T16:22:36.525Z,0
2018-11-02T16:23:46.467Z,0
2018-11-02T16:24:56.699Z,0
2018-11-02T16:26:06.700Z,0
2018-11-02T16:27:15.775Z,0
2018-11-02T16:28:25.703Z,0
2018-11-02T16:29:35.360Z,0
2018-11-02T16:30:45.569Z,0
2018-11-02T16:31:55.210Z,0
2018-11-02T16:33:05.443Z,0
2018-11-02T16:34:15.815Z,0
2018-11-02T16:35:25.095Z,0
2018-11-02T16:36:34.494Z,0
2018-11-02T16:37:44.367Z,0
2018-11-02T16:38:55.125Z,0
2018-11-02T16:40:04.775Z,0